createdAt,value
2023-11-01T00:02:01.806Z,20.9
2023-11-01T00:07:38.580Z,20.9
2023-11-01T00:13:29.774Z,20.9
2023-11-01T00:19:07.242Z,20.9
2023-11-01T00:24:44.405Z,20.9
2023-11-01T00:30:36.574Z,20.9
2023-11-01T00:36:13.846Z,20.9
2023-11-01T00:41:49.868Z,20.9
2023-11-01T00:47:26.095Z,20.9
2023-11-01T00:53:03.134Z,20.9
2023-11-01T00:58:23.962Z,20.9
2023-11-01T01:04:01.964Z,20.8
2023-11-01T01:09:39.371Z,20.8
2023-11-01T01:15:15.428Z,20.8
2023-11-01T01:21:08.550Z,20.8
2023-11-01T01:26:45.607Z,20.8
2023-11-01T01:32:37.594Z,20.8
2023-11-01T01:38:13.638Z,20.8
2023-11-01T01:44:06.045Z,20.8
2023-11-01T01:49:49.612Z,20.8
2023-11-01T01:55:10.027Z,20.8
2023-11-01T02:00:32.125Z,20.8
2023-11-01T02:06:22.097Z,20.8
2023-11-01T02:11:58.616Z,20.8
2023-11-01T02:17:34.682Z,20.8
2023-11-01T02:23:11.015Z,20.8
2023-11-01T02:28:46.774Z,20.8
2023-11-01T02:34:23.639Z,20.7
2023-11-01T02:39:59.947Z,20.8
2023-11-01T02:45:51.702Z,20.8
2023-11-01T02:51:28.833Z,20.8
2023-11-01T02:56:49.476Z,20.7
2023-11-01T03:02:09.690Z,20.7
2023-11-01T03:07:46.995Z,20.7
2023-11-01T03:13:23.128Z,20.7
2023-11-01T03:18:59.138Z,20.7
2023-11-01T03:24:35.876Z,20.7
2023-11-01T03:30:11.857Z,20.7
2023-11-01T03:35:48.383Z,20.7
2023-11-01T03:41:40.900Z,20.7
2023-11-01T03:47:16.602Z,20.7
2023-11-01T03:53:08.951Z,20.7
2023-11-01T03:58:45.975Z,20.7
2023-11-01T04:04:23.991Z,20.7
2023-11-01T04:09:59.962Z,20.8
2023-11-01T04:15:51.554Z,20.7
2023-11-01T04:21:27.646Z,20.7
2023-11-01T04:27:03.328Z,20.7
2023-11-01T04:32:40.201Z,20.7
2023-11-01T04:38:16.449Z,20.7
2023-11-01T04:43:36.981Z,20.7
2023-11-01T04:49:00.999Z,20.7
2023-11-01T04:54:54.799Z,20.7
2023-11-01T05:00:30.941Z,20.7
2023-11-01T05:06:08.943Z,20.7
2023-11-01T05:12:00.880Z,20.7
2023-11-01T05:17:37.791Z,20.7
2023-11-01T05:23:13.934Z,20.6
2023-11-01T05:28:51.253Z,20.6
2023-11-01T05:34:29.833Z,20.6
2023-11-01T05:40:07.123Z,20.6
2023-11-01T05:45:12.773Z,20.6
2023-11-01T05:50:18.256Z,20.6
2023-11-01T05:56:05.026Z,20.6
2023-11-01T06:01:31.094Z,20.6
2023-11-01T06:06:52.645Z,20.6
2023-11-01T06:12:29.361Z,20.7
2023-11-01T06:17:49.954Z,20.6
2023-11-01T06:23:27.739Z,20.6
2023-11-01T06:28:48.926Z,20.7
2023-11-01T06:34:26.808Z,20.6
2023-11-01T06:40:03.995Z,20.6
2023-11-01T06:45:40.909Z,20.7
2023-11-01T06:51:18.351Z,20.8
2023-11-01T06:56:57.182Z,20.7
2023-11-01T07:02:19.281Z,20.8
2023-11-01T07:07:40.319Z,20.8
2023-11-01T07:13:16.558Z,20.8
2023-11-01T07:18:37.866Z,20.8
2023-11-01T07:24:14.436Z,20.9
2023-11-01T07:29:34.768Z,20.8
2023-11-01T07:35:11.945Z,20.9
2023-11-01T07:40:47.700Z,20.9
2023-11-01T07:46:23.612Z,20.9
2023-11-01T07:52:02.301Z,20.9
2023-11-01T07:57:38.190Z,20.9
2023-11-01T08:02:59.217Z,20.9
2023-11-01T08:08:39.872Z,21
2023-11-01T08:14:02.041Z,20.9
2023-11-01T08:19:22.899Z,21
2023-11-01T08:24:28.957Z,21
2023-11-01T08:29:34.325Z,21
2023-11-01T08:35:27.478Z,21
2023-11-01T08:40:33.660Z,21.1
2023-11-01T08:46:10.149Z,21
2023-11-01T08:51:46.854Z,21
2023-11-01T08:56:53.140Z,21
2023-11-01T09:02:32.571Z,21
2023-11-01T09:07:53.317Z,21.1
2023-11-01T09:13:05.760Z,21
2023-11-01T09:18:26.963Z,21.1
2023-11-01T09:23:34.650Z,21.1
2023-11-01T09:29:11.247Z,21
2023-11-01T09:34:32.621Z,21.1
2023-11-01T09:39:38.033Z,21.1
2023-11-01T09:45:15.214Z,21.1
2023-11-01T09:50:37.135Z,21.1
2023-11-01T09:55:57.951Z,21.1
2023-11-01T10:01:19.362Z,21.1
2023-11-01T10:06:40.690Z,21.1
2023-11-01T10:12:04.673Z,21.1
2023-11-01T10:17:10.859Z,21.1
2023-11-01T10:22:17.224Z,21.1
2023-11-01T10:27:23.677Z,21.1
2023-11-01T10:32:48.614Z,21.1
2023-11-01T10:38:09.924Z,21.1
2023-11-01T10:43:32.231Z,21.1
2023-11-01T10:49:29.906Z,21.1
2023-11-01T10:55:08.388Z,21.1
2023-11-01T11:00:44.667Z,21.1
2023-11-01T11:12:06.060Z,21.1
2023-11-01T11:17:27.395Z,21.1
2023-11-01T11:49:29.069Z,21.1
2023-11-01T12:11:12.807Z,21.2
2023-11-01T12:43:25.420Z,21.2
2023-11-01T12:48:47.296Z,21.2
2023-11-01T12:54:24.080Z,21.2
2023-11-01T13:00:19.433Z,21.2
2023-11-01T13:05:57.113Z,21.2
2023-11-01T13:11:33.796Z,21.3
2023-11-01T13:17:15.269Z,21.2
2023-11-01T13:23:10.378Z,21.2
2023-11-01T13:28:47.187Z,21.3
2023-11-01T13:34:41.217Z,21.3
2023-11-01T13:40:32.850Z,21.3
2023-11-01T13:46:09.843Z,21.3
2023-11-01T13:51:34.208Z,21.3
2023-11-01T13:57:23.778Z,21.3
2023-11-01T14:03:17.314Z,21.3
2023-11-01T14:09:13.537Z,21.3
2023-11-01T14:15:06.329Z,21.4
2023-11-01T14:20:46.511Z,21.4
2023-11-01T14:26:38.550Z,21.4
2023-11-01T14:32:14.649Z,21.4
2023-11-01T14:38:07.348Z,21.4
2023-11-01T14:43:43.213Z,21.4
2023-11-01T14:49:36.939Z,21.4
2023-11-01T14:55:13.711Z,21.4
2023-11-01T15:00:50.714Z,21.4
2023-11-01T15:06:27.331Z,21.4
2023-11-01T15:12:20.832Z,21.4
2023-11-01T15:17:58.230Z,21.4
2023-11-01T15:23:34.577Z,21.4
2023-11-01T15:29:27.900Z,21.4
2023-11-01T15:35:23.374Z,21.4
2023-11-01T15:41:17.711Z,21.3
2023-11-01T15:47:13.942Z,21.3
2023-11-01T15:53:09.693Z,21.3
2023-11-01T15:58:48.936Z,21.3
2023-11-01T16:04:30.209Z,21.3
2023-11-01T16:10:08.164Z,21.3
2023-11-01T16:15:48.112Z,21.2
2023-11-01T16:21:42.607Z,21.3
2023-11-01T16:27:35.126Z,21.2
2023-11-01T16:33:14.106Z,21.2
2023-11-01T16:38:51.944Z,21.2
2023-11-01T16:44:29.220Z,21.2
2023-11-01T16:50:24.818Z,21.2
2023-11-01T16:56:16.792Z,21.2
2023-11-01T17:02:10.406Z,21.2
2023-11-01T17:07:52.470Z,21.2
2023-11-01T17:13:28.758Z,21.2
2023-11-01T17:19:21.242Z,21.2
2023-11-01T17:25:12.623Z,21.2
2023-11-01T17:31:06.970Z,21.2
2023-11-01T17:42:33.126Z,21.2
2023-11-01T17:48:25.222Z,21.2
2023-11-01T17:54:17.243Z,21.2
2023-11-01T18:00:13.088Z,21.2
2023-11-01T18:05:48.100Z,21.2
2023-11-01T18:11:11.228Z,21.2
2023-11-01T18:16:51.533Z,21.2
2023-11-01T18:22:34.884Z,21.2
2023-11-01T18:56:41.868Z,21.1
2023-11-01T19:02:19.851Z,21.1
2023-11-01T19:08:14.289Z,21.1
2023-11-01T19:14:07.262Z,21.1
2023-11-01T19:19:49.930Z,21.1
2023-11-01T19:25:44.254Z,21.1
2023-11-01T19:31:44.024Z,21.1
2023-11-01T19:37:31.535Z,21.1
2023-11-01T19:42:54.263Z,21
2023-11-01T19:48:32.820Z,21.1
2023-11-01T19:54:14.949Z,21
2023-11-01T19:59:53.271Z,20.9
2023-11-01T20:05:17.284Z,21
2023-11-01T20:10:56.062Z,20.9
2023-11-01T20:16:42.231Z,21
2023-11-01T20:22:05.301Z,20.9
2023-11-01T20:27:44.138Z,21
2023-11-01T20:33:09.364Z,20.9
2023-11-01T20:39:03.016Z,20.9
2023-11-01T20:44:40.710Z,20.9
2023-11-01T20:50:03.321Z,20.9
2023-11-01T20:55:41.293Z,20.9
2023-11-01T21:01:19.280Z,20.8
2023-11-01T21:06:42.421Z,20.9
2023-11-01T21:12:03.739Z,20.8
2023-11-01T21:17:44.494Z,20.8
2023-11-01T21:23:25.370Z,20.8
2023-11-01T21:28:47.811Z,20.8
2023-11-01T21:34:25.530Z,20.8
2023-11-01T21:40:13.494Z,20.8
2023-11-01T21:45:59.947Z,20.8
2023-11-01T21:51:22.308Z,20.7
2023-11-01T21:56:42.948Z,20.7
2023-11-01T22:02:14.036Z,20.7
2023-11-01T22:07:44.963Z,20.7
2023-11-01T22:13:21.126Z,20.7
2023-11-01T22:18:58.018Z,20.6
2023-11-01T22:24:36.194Z,20.6
2023-11-01T22:30:29.393Z,20.6
2023-11-01T22:36:06.922Z,20.6
2023-11-01T22:41:59.196Z,20.6
2023-11-01T22:47:36.226Z,20.6
2023-11-01T22:53:28.177Z,20.6
2023-11-01T22:59:18.049Z,20.6
2023-11-01T23:05:09.690Z,20.5
2023-11-01T23:10:46.356Z,20.5
2023-11-01T23:16:23.449Z,20.5
2023-11-01T23:22:00.626Z,20.5
2023-11-01T23:27:39.303Z,20.5
2023-11-01T23:33:26.088Z,20.4
2023-11-01T23:39:10.066Z,20.4
2023-11-01T23:44:48.875Z,20.5
2023-11-01T23:51:17.488Z,20.4
2023-11-01T23:57:09.380Z,20.4
